createdAt,value
2023-03-07T00:01:51.656Z,20.48
2023-03-07T00:06:57.141Z,24.73
2023-03-07T00:12:02.972Z,22.13
2023-03-07T00:17:07.405Z,16.92
2023-03-07T00:22:14.556Z,21.40
2023-03-07T00:27:20.724Z,18.05
2023-03-07T00:32:25.892Z,20.20
2023-03-07T00:37:30.968Z,15.15
2023-03-07T00:42:36.926Z,17.03
2023-03-07T00:47:41.450Z,20.40
2023-03-07T00:52:46.093Z,16.40
2023-03-07T00:57:52.738Z,17.37
2023-03-07T01:03:02.246Z,18.80
2023-03-07T01:08:06.896Z,13.00
2023-03-07T01:13:13.790Z,12.25
2023-03-07T01:18:18.610Z,22.55
2023-03-07T01:23:23.526Z,15.43
2023-03-07T01:28:29.836Z,20.55
2023-03-07T01:33:34.601Z,18.23
2023-03-07T01:38:39.725Z,20.13
2023-03-07T01:43:46.103Z,13.90
2023-03-07T01:48:59.421Z,16.92
2023-03-07T01:54:07.574Z,12.70
2023-03-07T01:59:15.483Z,17.00
2023-03-07T02:04:24.206Z,14.25
2023-03-07T02:09:30.354Z,16.27
2023-03-07T02:14:36.792Z,15.57
2023-03-07T02:19:55.516Z,16.35
2023-03-07T02:25:03.940Z,17.50
2023-03-07T02:30:12.627Z,15.95
2023-03-07T02:35:19.710Z,16.15
2023-03-07T02:40:30.929Z,15.40
2023-03-07T02:45:37.296Z,15.73
2023-03-07T02:50:42.044Z,11.20
2023-03-07T02:55:47.449Z,13.13
2023-03-07T03:00:53.343Z,12.82
2023-03-07T03:05:57.919Z,12.55
2023-03-07T03:11:02.397Z,12.27
2023-03-07T03:16:09.296Z,13.23
2023-03-07T03:21:15.051Z,13.07
2023-03-07T03:31:25.964Z,13.63
2023-03-07T03:36:30.414Z,14.10
2023-03-07T03:41:39.774Z,13.68
2023-03-07T03:46:46.023Z,15.77
2023-03-07T03:56:55.928Z,12.98
2023-03-07T04:02:04.254Z,12.00
2023-03-07T04:07:12.356Z,15.63
2023-03-07T04:12:20.024Z,15.20
2023-03-07T04:17:29.282Z,16.60
2023-03-07T04:22:37.193Z,13.30
2023-03-07T04:27:44.994Z,11.65
2023-03-07T04:32:54.206Z,12.88
2023-03-07T04:38:02.624Z,12.80
2023-03-07T04:43:10.289Z,13.10
2023-03-07T04:48:20.689Z,14.80
2023-03-07T04:53:28.808Z,14.88
2023-03-07T04:58:39.232Z,16.90
2023-03-07T05:03:48.191Z,14.13
2023-03-07T05:08:56.384Z,14.23
2023-03-07T05:14:03.331Z,14.30
2023-03-07T05:19:10.868Z,15.88
2023-03-07T05:24:17.990Z,16.25
2023-03-07T05:29:24.728Z,14.52
2023-03-07T05:39:39.673Z,21.27
2023-03-07T05:44:47.602Z,14.75
2023-03-07T05:49:56.167Z,15.55
2023-03-07T05:55:03.315Z,14.95
2023-03-07T06:00:13.317Z,15.35
2023-03-07T06:05:31.492Z,16.13
2023-03-07T06:10:40.723Z,16.67
2023-03-07T06:15:52.780Z,17.40
2023-03-07T06:21:04.762Z,18.42
2023-03-07T06:26:16.652Z,16.50
2023-03-07T06:31:27.039Z,16.63
2023-03-07T06:36:36.945Z,17.92
2023-03-07T06:41:44.477Z,18.38
2023-03-07T06:46:53.729Z,19.45
2023-03-07T06:52:04.110Z,20.35
2023-03-07T06:57:12.385Z,17.67
2023-03-07T07:02:20.591Z,16.95
2023-03-07T07:07:29.933Z,17.88
2023-03-07T07:12:37.733Z,18.08
2023-03-07T07:17:45.127Z,19.42
2023-03-07T07:22:54.603Z,18.98
2023-03-07T07:28:00.137Z,24.02
2023-03-07T07:33:07.284Z,22.37
2023-03-07T07:38:16.454Z,18.83
2023-03-07T07:43:23.941Z,19.67
2023-03-07T07:48:41.744Z,20.38
2023-03-07T07:53:50.722Z,18.95
2023-03-07T07:58:58.335Z,24.50
2023-03-07T08:04:06.769Z,18.08
2023-03-07T08:09:16.567Z,18.45
2023-03-07T08:14:27.518Z,18.77
2023-03-07T08:19:35.861Z,17.70
2023-03-07T08:24:44.933Z,21.85
2023-03-07T08:29:52.577Z,20.85
2023-03-07T08:34:58.008Z,19.60
2023-03-07T08:40:06.490Z,16.67
2023-03-07T08:45:14.179Z,16.02
2023-03-07T08:51:15.156Z,19.25
2023-03-07T08:56:34.771Z,16.95
2023-03-07T09:01:41.780Z,16.10
2023-03-07T09:06:49.466Z,17.90
2023-03-07T09:11:57.495Z,15.90
2023-03-07T09:17:05.179Z,16.90
2023-03-07T09:22:12.874Z,16.58
2023-03-07T09:27:22.060Z,16.02
2023-03-07T09:32:28.898Z,14.18
2023-03-07T09:37:37.215Z,17.98
2023-03-07T09:42:57.967Z,14.10
2023-03-07T09:48:37.145Z,12.93
2023-03-07T09:53:47.129Z,12.80
2023-03-07T09:59:06.635Z,12.95
2023-03-07T10:04:27.824Z,13.27
2023-03-07T10:09:35.978Z,12.95
2023-03-07T10:15:05.111Z,12.95
2023-03-07T10:20:24.919Z,12.85
2023-03-07T10:25:37.788Z,14.32
2023-03-07T10:30:45.486Z,12.32
2023-03-07T10:35:57.260Z,14.57
2023-03-07T10:41:10.317Z,13.43
2023-03-07T10:46:27.096Z,13.77
2023-03-07T10:51:46.649Z,11.88
2023-03-07T10:57:10.165Z,12.20
2023-03-07T11:02:36.573Z,12.68
2023-03-07T11:07:41.359Z,12.27
2023-03-07T11:12:47.400Z,12.05
2023-03-07T11:17:55.821Z,11.43
2023-03-07T11:23:24.008Z,11.30
2023-03-07T11:28:34.130Z,11.98
2023-03-07T11:34:00.328Z,16.92
2023-03-07T11:39:13.873Z,12.73
2023-03-07T11:44:36.032Z,12.13
2023-03-07T11:49:55.907Z,13.30
2023-03-07T11:55:16.878Z,12.52
2023-03-07T12:00:34.110Z,10.88
2023-03-07T12:05:52.663Z,15.32
2023-03-07T12:11:10.246Z,11.82
2023-03-07T12:16:27.936Z,13.48
2023-03-07T12:22:01.063Z,11.65
2023-03-07T12:27:14.526Z,11.70
2023-03-07T12:32:27.370Z,11.60
2023-03-07T12:37:42.031Z,10.95
2023-03-07T12:42:57.384Z,10.90
2023-03-07T12:48:12.554Z,10.52
2023-03-07T12:53:23.778Z,11.23
2023-03-07T12:58:41.206Z,11.15
2023-03-07T13:03:57.545Z,11.45
2023-03-07T13:09:05.988Z,14.02
2023-03-07T13:14:35.265Z,14.32
2023-03-07T13:19:55.246Z,12.68
2023-03-07T13:25:22.451Z,12.55
2023-03-07T13:30:29.210Z,13.60
2023-03-07T13:35:58.225Z,13.75
2023-03-07T13:41:05.415Z,13.77
2023-03-07T13:46:31.977Z,13.20
2023-03-07T13:51:38.094Z,13.77
2023-03-07T13:56:47.441Z,13.60
2023-03-07T14:01:59.483Z,14.10
2023-03-07T14:07:13.324Z,13.65
2023-03-07T14:12:31.295Z,12.85
2023-03-07T14:17:53.802Z,13.70
2023-03-07T14:23:21.788Z,14.45
2023-03-07T14:28:30.725Z,14.50
2023-03-07T14:33:42.904Z,14.18
2023-03-07T14:38:51.871Z,15.48
2023-03-07T14:44:10.352Z,14.55
2023-03-07T14:49:31.575Z,15.98
2023-03-07T14:54:40.322Z,16.10
2023-03-07T15:00:07.423Z,15.20
2023-03-07T15:05:18.823Z,15.52
2023-03-07T15:10:34.005Z,16.67
2023-03-07T15:15:47.368Z,17.38
2023-03-07T15:20:55.960Z,16.50
2023-03-07T15:26:05.955Z,19.00
2023-03-07T15:31:15.787Z,18.48
2023-03-07T15:36:28.495Z,18.38
2023-03-07T15:41:36.214Z,18.73
2023-03-07T15:46:47.064Z,19.70
2023-03-07T15:51:55.762Z,19.35
2023-03-07T15:57:05.337Z,24.23
2023-03-07T16:02:42.777Z,24.33
2023-03-07T16:07:50.734Z,30.17
2023-03-07T16:12:56.622Z,26.77
2023-03-07T16:18:03.425Z,23.65
2023-03-07T16:23:12.680Z,22.80
2023-03-07T16:28:17.086Z,22.33
2023-03-07T16:33:23.009Z,23.38
2023-03-07T16:38:27.561Z,23.98
2023-03-07T16:43:37.535Z,25.13
2023-03-07T16:48:43.687Z,28.45
2023-03-07T16:53:49.407Z,28.17
2023-03-07T16:58:54.617Z,24.27
2023-03-07T17:04:00.359Z,23.93
2023-03-07T17:09:05.033Z,25.65
2023-03-07T17:14:14.426Z,26.30
2023-03-07T17:19:28.405Z,25.98
2023-03-07T17:24:33.074Z,27.77
2023-03-07T17:29:41.706Z,28.75
2023-03-07T17:34:47.659Z,31.48
2023-03-07T17:39:52.151Z,29.75
2023-03-07T17:44:57.436Z,27.38
2023-03-07T17:50:05.537Z,24.07
2023-03-07T17:55:11.154Z,37.17
2023-03-07T18:00:16.193Z,28.63
2023-03-07T18:05:21.966Z,23.38
2023-03-07T18:10:26.689Z,23.50
2023-03-07T18:15:31.016Z,22.75
2023-03-07T18:20:37.277Z,22.95
2023-03-07T18:25:41.984Z,22.60
2023-03-07T18:30:48.968Z,20.95
2023-03-07T18:35:56.361Z,22.02
2023-03-07T18:41:08.616Z,20.67
2023-03-07T18:46:15.806Z,20.00
2023-03-07T18:51:25.189Z,20.38
2023-03-07T18:56:30.147Z,19.70
2023-03-07T19:01:35.808Z,18.97
2023-03-07T19:06:45.159Z,17.42
2023-03-07T19:11:49.747Z,16.88
2023-03-07T19:16:54.312Z,17.50
2023-03-07T19:22:00.849Z,15.40
2023-03-07T19:27:05.642Z,15.23
2023-03-07T19:32:10.065Z,14.85
2023-03-07T19:37:16.153Z,17.13
2023-03-07T19:42:20.647Z,15.15
2023-03-07T19:47:24.935Z,15.57
2023-03-07T19:52:30.659Z,14.73
2023-03-07T20:02:40.713Z,24.38
2023-03-07T20:07:46.553Z,16.70
2023-03-07T20:17:57.355Z,15.50
2023-03-07T20:23:03.441Z,14.68
2023-03-07T20:28:08.406Z,17.65
2023-03-07T20:33:12.733Z,15.37
2023-03-07T20:38:18.484Z,15.15
2023-03-07T20:43:23.143Z,13.85
2023-03-07T20:48:27.522Z,13.70
2023-03-07T20:53:33.489Z,14.32
2023-03-07T20:58:37.881Z,14.60
2023-03-07T21:03:42.188Z,13.45
2023-03-07T21:08:48.660Z,14.02
2023-03-07T21:13:53.075Z,13.18
2023-03-07T21:19:01.282Z,14.75
2023-03-07T21:24:08.044Z,15.18
2023-03-07T21:29:14.077Z,14.40
2023-03-07T21:39:24.273Z,13.82
2023-03-07T21:44:28.658Z,13.45
2023-03-07T21:49:34.075Z,16.13
2023-03-07T21:54:39.815Z,12.98
2023-03-07T21:59:44.082Z,13.52
2023-03-07T22:04:48.473Z,13.07
2023-03-07T22:09:54.211Z,14.48
2023-03-07T22:14:58.566Z,15.60
2023-03-07T22:20:03.041Z,16.80
2023-03-07T22:25:09.604Z,16.52
2023-03-07T22:30:14.938Z,14.43
2023-03-07T22:35:19.439Z,18.57
2023-03-07T22:40:25.385Z,14.90
2023-03-07T22:45:29.705Z,18.60
2023-03-07T22:50:34.169Z,19.17
2023-03-07T22:55:42.816Z,17.13
2023-03-07T23:00:47.074Z,16.38
2023-03-07T23:05:51.449Z,15.52
2023-03-07T23:11:03.628Z,15.63
2023-03-07T23:16:10.757Z,15.07
2023-03-07T23:21:17.010Z,15.07
2023-03-07T23:26:25.905Z,14.73
2023-03-07T23:31:35.152Z,14.98
2023-03-07T23:36:39.617Z,14.80
2023-03-07T23:41:45.339Z,13.65
2023-03-07T23:51:54.281Z,14.85
2023-03-07T23:56:59.976Z,13.68
